createdAt,value
2023-08-17T00:00:54.441Z,19.22
2023-08-17T00:01:54.466Z,19.16
2023-08-17T00:02:54.434Z,19.22
2023-08-17T00:03:54.417Z,19.23
2023-08-17T00:04:54.358Z,19.23
2023-08-17T00:05:54.337Z,19.25
2023-08-17T00:06:54.315Z,19.13
2023-08-17T00:07:54.290Z,19.22
2023-08-17T00:08:54.289Z,19.21
2023-08-17T00:09:54.245Z,19.14
2023-08-17T00:10:54.236Z,19.14
2023-08-17T00:11:54.230Z,19.11
2023-08-17T00:12:54.199Z,19.25
2023-08-17T00:13:54.171Z,19.18
2023-08-17T00:14:54.150Z,19.25
2023-08-17T00:15:54.160Z,19.16
2023-08-17T00:16:54.111Z,19.06
2023-08-17T00:17:54.134Z,19.06
2023-08-17T00:18:54.072Z,19.11
2023-08-17T00:19:54.054Z,19.11
2023-08-17T00:20:54.038Z,19.08
2023-08-17T00:21:54.007Z,19.08
2023-08-17T00:22:53.984Z,19.04
2023-08-17T00:23:53.979Z,19.06
2023-08-17T00:24:53.949Z,19.00
2023-08-17T00:25:53.933Z,18.98
2023-08-17T00:26:53.913Z,19.02
2023-08-17T00:27:53.913Z,18.99
2023-08-17T00:28:53.862Z,19.11
2023-08-17T00:29:53.845Z,19.06
2023-08-17T00:30:53.822Z,18.99
2023-08-17T00:31:53.854Z,19.06
2023-08-17T00:32:53.813Z,19.10
2023-08-17T00:33:53.762Z,19.07
2023-08-17T00:34:53.746Z,19.07
2023-08-17T00:35:53.729Z,19.00
2023-08-17T00:36:53.701Z,19.07
2023-08-17T00:37:53.688Z,19.13
2023-08-17T00:38:53.659Z,19.06
2023-08-17T00:39:53.649Z,19.10
2023-08-17T00:40:53.622Z,19.13
2023-08-17T00:41:53.615Z,18.99
2023-08-17T00:42:53.578Z,19.06
2023-08-17T00:43:53.585Z,19.02
2023-08-17T00:44:53.537Z,18.99
2023-08-17T00:45:53.548Z,18.99
2023-08-17T00:46:53.488Z,18.90
2023-08-17T00:47:53.517Z,18.91
2023-08-17T00:48:53.456Z,18.90
2023-08-17T00:49:53.435Z,18.99
2023-08-17T00:50:53.412Z,18.99
2023-08-17T00:51:53.409Z,18.99
2023-08-17T00:52:53.371Z,18.90
2023-08-17T00:53:53.357Z,18.87
2023-08-17T00:54:53.340Z,18.87
2023-08-17T00:55:53.340Z,18.90
2023-08-17T00:56:53.291Z,18.87
2023-08-17T00:57:53.272Z,18.90
2023-08-17T00:58:53.262Z,18.87
2023-08-17T01:00:04.880Z,18.92
2023-08-17T01:00:53.210Z,18.88
2023-08-17T01:01:53.199Z,18.88
2023-08-17T01:02:53.190Z,18.92
2023-08-17T01:03:53.158Z,18.81
2023-08-17T01:04:53.170Z,18.94
2023-08-17T01:05:53.109Z,18.91
2023-08-17T01:06:53.088Z,18.91
2023-08-17T01:07:53.073Z,18.99
2023-08-17T01:08:53.042Z,18.98
2023-08-17T01:09:53.032Z,18.92
2023-08-17T01:10:53.014Z,19.06
2023-08-17T01:11:52.992Z,18.99
2023-08-17T01:12:52.968Z,18.99
2023-08-17T01:13:52.957Z,19.00
2023-08-17T01:14:52.935Z,19.00
2023-08-17T01:15:52.988Z,18.94
2023-08-17T01:16:52.896Z,19.00
2023-08-17T01:17:52.923Z,19.04
2023-08-17T01:18:52.910Z,19.00
2023-08-17T01:19:52.826Z,18.99
2023-08-17T01:20:52.811Z,18.99
2023-08-17T01:21:52.793Z,18.90
2023-08-17T01:22:52.767Z,18.91
2023-08-17T01:23:52.747Z,18.91
2023-08-17T01:24:52.744Z,18.90
2023-08-17T01:25:52.705Z,18.92
2023-08-17T01:26:52.688Z,18.90
2023-08-17T01:27:52.686Z,18.92
2023-08-17T01:28:52.641Z,18.87
2023-08-17T01:29:52.620Z,18.85
2023-08-17T01:30:52.610Z,18.76
2023-08-17T01:31:52.614Z,18.80
2023-08-17T01:32:52.586Z,18.88
2023-08-17T01:33:52.541Z,18.85
2023-08-17T01:34:52.520Z,18.87
2023-08-17T01:35:52.503Z,18.92
2023-08-17T01:36:52.485Z,18.90
2023-08-17T01:37:52.462Z,18.87
2023-08-17T01:38:52.442Z,18.78
2023-08-17T01:39:52.434Z,18.90
2023-08-17T01:40:52.417Z,18.87
2023-08-17T01:41:52.383Z,18.76
2023-08-17T01:42:52.357Z,18.70
2023-08-17T01:43:52.367Z,18.69
2023-08-17T01:44:52.326Z,18.70
2023-08-17T01:45:52.300Z,18.70
2023-08-17T01:46:52.338Z,18.65
2023-08-17T01:47:52.354Z,18.65
2023-08-17T01:48:52.245Z,18.58
2023-08-17T01:49:52.220Z,18.55
2023-08-17T01:50:52.200Z,18.51
2023-08-17T01:51:52.184Z,18.58
2023-08-17T01:52:52.254Z,18.47
2023-08-17T01:53:52.151Z,18.47
2023-08-17T01:54:52.120Z,18.52
2023-08-17T01:55:54.244Z,18.57
2023-08-17T01:56:52.073Z,18.42
2023-08-17T01:57:52.060Z,18.42
2023-08-17T01:58:52.033Z,18.42
2023-08-17T01:59:52.015Z,18.36
2023-08-17T02:00:52.022Z,18.44
2023-08-17T02:01:52.001Z,18.41
2023-08-17T02:02:51.995Z,18.42
2023-08-17T02:03:51.956Z,18.33
2023-08-17T02:04:51.914Z,18.29
2023-08-17T02:05:51.892Z,18.21
2023-08-17T02:06:51.867Z,18.21
2023-08-17T02:07:51.858Z,18.11
2023-08-17T02:08:51.824Z,18.15
2023-08-17T02:09:51.812Z,18.05
2023-08-17T02:10:51.808Z,18.07
2023-08-17T02:11:51.776Z,18.05
2023-08-17T02:12:56.658Z,18.08
2023-08-17T02:13:51.729Z,18.11
2023-08-17T02:14:51.726Z,18.12
2023-08-17T02:15:51.696Z,18.08
2023-08-17T02:16:51.754Z,18.10
2023-08-17T02:17:51.689Z,18.05
2023-08-17T02:18:51.635Z,18.17
2023-08-17T02:19:51.636Z,18.11
2023-08-17T02:20:51.592Z,18.23
2023-08-17T02:21:51.574Z,18.17
2023-08-17T02:22:51.548Z,18.15
2023-08-17T02:23:51.527Z,18.18
2023-08-17T02:24:51.504Z,17.99
2023-08-17T02:25:51.494Z,18.08
2023-08-17T02:26:51.460Z,17.93
2023-08-17T02:27:51.451Z,17.99
2023-08-17T02:28:51.420Z,17.95
2023-08-17T02:29:51.411Z,17.90
2023-08-17T02:30:51.398Z,17.75
2023-08-17T02:31:51.362Z,17.77
2023-08-17T02:32:51.364Z,17.64
2023-08-17T02:33:51.320Z,17.77
2023-08-17T02:34:51.299Z,17.71
2023-08-17T02:35:51.329Z,17.75
2023-08-17T02:36:51.272Z,17.64
2023-08-17T02:37:51.241Z,17.78
2023-08-17T02:38:51.212Z,17.81
2023-08-17T02:39:51.204Z,17.75
2023-08-17T02:40:51.207Z,17.68
2023-08-17T02:41:51.167Z,17.74
2023-08-17T02:42:51.137Z,17.72
2023-08-17T02:43:51.118Z,17.71
2023-08-17T02:44:51.097Z,17.75
2023-08-17T02:45:51.088Z,17.74
2023-08-17T02:46:51.049Z,17.70
2023-08-17T02:47:51.115Z,17.72
2023-08-17T02:48:51.013Z,17.77
2023-08-17T02:49:50.989Z,17.77
2023-08-17T02:50:50.962Z,17.90
2023-08-17T02:51:50.965Z,17.92
2023-08-17T02:52:50.925Z,17.84
2023-08-17T02:53:50.904Z,17.75
2023-08-17T02:54:50.883Z,17.86
2023-08-17T02:55:50.870Z,17.82
2023-08-17T02:56:50.845Z,17.74
2023-08-17T02:57:50.836Z,17.74
2023-08-17T02:58:50.813Z,17.89
2023-08-17T02:59:50.783Z,17.75
2023-08-17T03:00:50.770Z,17.74
2023-08-17T03:01:50.812Z,17.63
2023-08-17T03:02:50.850Z,17.74
2023-08-17T03:03:50.708Z,17.68
2023-08-17T03:04:50.680Z,17.66
2023-08-17T03:05:50.659Z,17.63
2023-08-17T03:06:50.642Z,17.72
2023-08-17T03:07:50.641Z,17.59
2023-08-17T03:08:50.596Z,17.71
2023-08-17T03:09:50.573Z,17.63
2023-08-17T03:10:50.556Z,17.58
2023-08-17T03:11:50.539Z,17.64
2023-08-17T03:12:50.512Z,17.64
2023-08-17T03:13:50.494Z,17.68
2023-08-17T03:14:50.472Z,17.68
2023-08-17T03:15:50.455Z,17.66
2023-08-17T03:16:50.436Z,17.56
2023-08-17T03:17:50.425Z,17.63
2023-08-17T03:18:50.392Z,17.54
2023-08-17T03:19:50.380Z,17.51
2023-08-17T03:20:50.357Z,17.51
2023-08-17T03:21:50.333Z,17.44
2023-08-17T03:22:50.309Z,17.55
2023-08-17T03:23:50.311Z,17.49
2023-08-17T03:24:50.265Z,17.54
2023-08-17T03:25:50.253Z,17.49
2023-08-17T03:26:50.227Z,17.40
2023-08-17T03:27:50.229Z,17.41
2023-08-17T03:28:50.189Z,17.40
2023-08-17T03:29:50.179Z,17.37
2023-08-17T03:30:50.165Z,17.36
2023-08-17T03:31:50.124Z,17.40
2023-08-17T03:32:50.129Z,17.43
2023-08-17T03:33:50.089Z,17.30
2023-08-17T03:34:50.059Z,17.41
2023-08-17T03:35:50.043Z,17.36
2023-08-17T03:36:50.018Z,17.48
2023-08-17T03:37:50.014Z,17.37
2023-08-17T03:38:49.984Z,17.48
2023-08-17T03:39:49.985Z,17.33
2023-08-17T03:40:49.941Z,17.34
2023-08-17T03:41:49.924Z,17.44
2023-08-17T03:42:49.912Z,17.31
2023-08-17T03:43:49.881Z,17.48
2023-08-17T03:44:49.852Z,17.37
2023-08-17T03:45:49.846Z,17.28
2023-08-17T03:46:49.809Z,17.48
2023-08-17T03:47:49.821Z,17.34
2023-08-17T03:48:49.768Z,17.43
2023-08-17T03:49:49.753Z,17.46
2023-08-17T03:50:49.739Z,17.25
2023-08-17T03:51:49.708Z,17.36
2023-08-17T03:52:49.688Z,17.34
2023-08-17T03:53:49.671Z,17.31
2023-08-17T03:54:49.642Z,17.40
2023-08-17T03:55:49.641Z,17.30
2023-08-17T03:56:49.596Z,17.26
2023-08-17T03:57:49.580Z,17.22
2023-08-17T03:58:49.564Z,17.21
2023-08-17T03:59:49.546Z,17.15
2023-08-17T04:00:49.533Z,17.23
2023-08-17T04:01:49.525Z,17.22
2023-08-17T04:02:49.531Z,17.22
2023-08-17T04:03:49.469Z,17.26
2023-08-17T04:04:49.464Z,17.30
2023-08-17T04:05:49.420Z,17.31
2023-08-17T04:06:49.396Z,17.31
2023-08-17T04:07:49.381Z,17.19
2023-08-17T04:08:49.354Z,17.26
2023-08-17T04:09:49.343Z,17.23
2023-08-17T04:10:49.334Z,17.28
2023-08-17T04:11:49.320Z,17.19
2023-08-17T04:12:49.267Z,17.25
2023-08-17T04:13:49.256Z,17.31
2023-08-17T04:14:49.233Z,17.26
2023-08-17T04:15:49.233Z,17.22
2023-08-17T04:16:49.220Z,17.31
2023-08-17T04:17:49.188Z,17.22
2023-08-17T04:18:49.150Z,17.23
2023-08-17T04:19:49.128Z,17.22
2023-08-17T04:20:49.117Z,17.18
2023-08-17T04:21:49.085Z,17.15
2023-08-17T04:22:49.062Z,17.30
2023-08-17T04:23:49.045Z,17.38
2023-08-17T04:24:49.023Z,17.23
2023-08-17T04:25:49.004Z,17.25
2023-08-17T04:26:48.987Z,17.31
2023-08-17T04:27:48.978Z,17.31
2023-08-17T04:28:48.941Z,17.26
2023-08-17T04:29:48.916Z,17.31
2023-08-17T04:30:48.903Z,17.28
2023-08-17T04:31:48.885Z,17.31
2023-08-17T04:32:48.895Z,17.37
2023-08-17T04:33:48.828Z,17.23
2023-08-17T04:34:48.811Z,17.37
2023-08-17T04:35:48.785Z,17.22
2023-08-17T04:36:48.775Z,17.37
2023-08-17T04:37:48.748Z,17.36
2023-08-17T04:38:48.728Z,17.31
2023-08-17T04:39:48.702Z,17.38
2023-08-17T04:40:48.682Z,17.25
2023-08-17T04:41:48.660Z,17.30
2023-08-17T04:42:48.638Z,17.19
2023-08-17T04:43:48.646Z,17.19
2023-08-17T04:44:48.604Z,17.23
2023-08-17T04:45:48.592Z,17.22
2023-08-17T04:46:48.569Z,17.23
2023-08-17T04:47:48.624Z,17.23
2023-08-17T04:48:48.518Z,17.23
2023-08-17T04:49:48.499Z,17.28
2023-08-17T04:50:48.470Z,17.26
2023-08-17T04:51:48.447Z,17.19
2023-08-17T04:52:48.437Z,17.34
2023-08-17T04:53:48.412Z,17.33
2023-08-17T04:54:48.395Z,17.33
2023-08-17T04:55:48.390Z,17.23
2023-08-17T04:56:48.349Z,17.21
2023-08-17T04:57:48.335Z,17.21
2023-08-17T04:58:48.316Z,17.23
2023-08-17T04:59:48.319Z,17.21
2023-08-17T05:00:48.261Z,17.21
2023-08-17T05:01:48.239Z,17.18
2023-08-17T05:02:48.362Z,17.30
2023-08-17T05:03:48.307Z,17.21
2023-08-17T05:04:48.189Z,17.19
2023-08-17T05:05:48.154Z,17.25
2023-08-17T05:06:48.134Z,17.22
2023-08-17T05:07:48.106Z,17.18
2023-08-17T05:08:48.102Z,17.21
2023-08-17T05:09:48.159Z,17.25
2023-08-17T05:10:48.079Z,17.23
2023-08-17T05:11:48.029Z,17.33
2023-08-17T05:12:48.050Z,17.25
2023-08-17T05:13:47.988Z,17.34
2023-08-17T05:14:47.983Z,17.34
2023-08-17T05:15:48.009Z,17.31
2023-08-17T05:16:47.935Z,17.33
2023-08-17T05:17:47.930Z,17.19
2023-08-17T05:18:47.898Z,17.26
2023-08-17T05:19:47.866Z,17.21
2023-08-17T05:20:47.847Z,17.19
2023-08-17T05:21:47.848Z,17.26
2023-08-17T05:22:47.804Z,17.21
2023-08-17T05:23:47.780Z,17.21
2023-08-17T05:24:47.766Z,17.22
2023-08-17T05:25:47.740Z,17.14
2023-08-17T05:26:47.720Z,17.18
2023-08-17T05:27:47.715Z,17.18
2023-08-17T05:28:47.682Z,17.19
2023-08-17T05:29:47.661Z,17.25
2023-08-17T05:30:47.641Z,17.22
2023-08-17T05:31:47.633Z,17.21
2023-08-17T05:32:47.612Z,17.22
2023-08-17T05:33:47.573Z,17.16
2023-08-17T05:34:47.546Z,17.18
2023-08-17T05:35:47.525Z,17.14
2023-08-17T05:36:47.526Z,17.19
2023-08-17T05:37:47.486Z,17.21
2023-08-17T05:38:47.471Z,17.19
2023-08-17T05:39:47.436Z,17.21
2023-08-17T05:40:47.422Z,17.25
2023-08-17T05:41:47.398Z,17.23
2023-08-17T05:42:47.378Z,17.18
2023-08-17T05:43:47.371Z,17.36
2023-08-17T05:44:47.343Z,17.28
2023-08-17T05:45:47.320Z,17.46
2023-08-17T05:46:47.333Z,17.49
2023-08-17T05:47:47.325Z,17.41
2023-08-17T05:48:47.253Z,17.40
2023-08-17T05:49:47.237Z,17.31
2023-08-17T05:50:47.213Z,17.36
2023-08-17T05:51:47.192Z,17.43
2023-08-17T05:52:47.172Z,17.44
2023-08-17T05:53:47.149Z,17.40
2023-08-17T05:54:47.129Z,17.49
2023-08-17T05:55:47.109Z,17.40
2023-08-17T05:56:47.085Z,17.58
2023-08-17T05:57:47.063Z,17.46
2023-08-17T05:58:47.111Z,17.56
2023-08-17T05:59:47.029Z,17.55
2023-08-17T06:00:47.062Z,17.62
2023-08-17T06:01:46.987Z,17.55
2023-08-17T06:02:47.012Z,17.55
2023-08-17T06:03:46.984Z,17.56
2023-08-17T06:04:46.917Z,17.62
2023-08-17T06:05:46.898Z,17.56
2023-08-17T06:06:46.870Z,17.58
2023-08-17T06:07:46.856Z,17.63
2023-08-17T06:08:46.835Z,17.66
2023-08-17T06:09:46.812Z,17.70
2023-08-17T06:10:46.792Z,17.68
2023-08-17T06:11:46.776Z,17.62
2023-08-17T06:12:46.749Z,17.64
2023-08-17T06:13:46.727Z,17.64
2023-08-17T06:14:46.735Z,17.70
2023-08-17T06:15:46.682Z,17.55
2023-08-17T06:16:46.691Z,17.46
2023-08-17T06:17:46.690Z,17.59
2023-08-17T06:18:46.625Z,17.58
2023-08-17T06:19:46.621Z,17.51
2023-08-17T06:20:46.583Z,17.54
2023-08-17T06:21:46.565Z,17.52
2023-08-17T06:22:46.539Z,17.51
2023-08-17T06:23:46.526Z,17.46
2023-08-17T06:24:46.526Z,17.55
2023-08-17T06:25:46.486Z,17.54
2023-08-17T06:26:46.462Z,17.55
2023-08-17T06:27:46.437Z,17.54
2023-08-17T06:28:46.425Z,17.55
2023-08-17T06:29:46.393Z,17.62
2023-08-17T06:30:46.420Z,17.59
2023-08-17T06:31:46.359Z,17.64
2023-08-17T06:32:46.372Z,17.68
2023-08-17T06:33:46.317Z,17.68
2023-08-17T06:34:46.288Z,17.72
2023-08-17T06:35:46.302Z,17.71
2023-08-17T06:36:46.252Z,17.92
2023-08-17T06:37:46.232Z,17.95
2023-08-17T06:38:46.212Z,17.97
2023-08-17T06:39:46.183Z,17.97
2023-08-17T06:40:46.168Z,17.92
2023-08-17T06:41:46.142Z,17.86
2023-08-17T06:42:46.124Z,17.84
2023-08-17T06:43:46.104Z,17.93
2023-08-17T06:44:46.097Z,17.96
2023-08-17T06:45:46.058Z,17.96
2023-08-17T06:46:46.064Z,17.99
2023-08-17T06:47:46.080Z,17.96
2023-08-17T06:48:46.004Z,17.95
2023-08-17T06:49:45.979Z,17.95
2023-08-17T06:50:45.970Z,17.82
2023-08-17T06:51:45.957Z,17.82
2023-08-17T06:52:45.935Z,17.93
2023-08-17T06:53:45.899Z,17.78
2023-08-17T06:54:45.884Z,17.90
2023-08-17T06:55:45.861Z,17.92
2023-08-17T06:56:45.834Z,17.99
2023-08-17T06:57:45.811Z,17.97
2023-08-17T06:58:45.803Z,17.97
2023-08-17T06:59:45.772Z,17.97
2023-08-17T07:00:45.758Z,18.07
2023-08-17T07:01:45.737Z,18.08
2023-08-17T07:02:54.225Z,18.12
2023-08-17T07:03:45.696Z,18.02
2023-08-17T07:04:45.711Z,17.97
2023-08-17T07:05:45.653Z,18.00
2023-08-17T07:06:45.629Z,17.93
2023-08-17T07:07:45.636Z,18.10
2023-08-17T07:08:45.597Z,18.11
2023-08-17T07:09:45.565Z,18.10
2023-08-17T07:10:45.551Z,17.96
2023-08-17T07:11:45.526Z,17.95
2023-08-17T07:12:45.508Z,17.95
2023-08-17T07:13:45.480Z,17.95
2023-08-17T07:14:45.466Z,17.95
2023-08-17T07:15:45.442Z,17.95
2023-08-17T07:16:45.428Z,17.95
2023-08-17T07:17:45.415Z,18.00
2023-08-17T07:18:45.390Z,18.03
2023-08-17T07:20:13.668Z,18.07
2023-08-17T07:20:45.347Z,17.99
2023-08-17T07:21:45.314Z,17.93
2023-08-17T07:22:45.330Z,17.95
2023-08-17T07:23:45.294Z,17.93
2023-08-17T07:24:45.259Z,18.00
2023-08-17T07:25:45.271Z,17.96
2023-08-17T07:26:45.222Z,17.87
2023-08-17T07:27:45.196Z,17.84
2023-08-17T07:28:45.176Z,17.82
2023-08-17T07:29:45.157Z,17.84
2023-08-17T07:30:45.143Z,17.92
2023-08-17T07:31:45.156Z,17.90
2023-08-17T07:32:45.099Z,17.92
2023-08-17T07:33:45.073Z,17.84
2023-08-17T07:34:45.056Z,17.78
2023-08-17T07:35:45.023Z,17.86
2023-08-17T07:36:45.011Z,17.86
2023-08-17T07:37:53.030Z,17.87
2023-08-17T07:38:44.967Z,17.82
2023-08-17T07:39:44.966Z,17.93
2023-08-17T07:40:44.917Z,17.96
2023-08-17T07:41:44.901Z,17.96
2023-08-17T07:42:44.898Z,17.93
2023-08-17T07:43:44.858Z,17.95
2023-08-17T07:44:44.848Z,17.95
2023-08-17T07:45:44.838Z,17.97
2023-08-17T07:46:44.810Z,17.92
2023-08-17T07:47:44.792Z,17.96
2023-08-17T07:48:44.759Z,17.92
2023-08-17T07:49:46.312Z,18.08
2023-08-17T07:50:44.725Z,18.07
2023-08-17T07:51:44.699Z,18.11
2023-08-17T07:52:44.676Z,18.15
2023-08-17T07:53:44.657Z,18.17
2023-08-17T07:54:44.636Z,18.08
2023-08-17T07:55:44.646Z,18.14
2023-08-17T07:56:44.591Z,18.14
2023-08-17T07:57:44.576Z,18.25
2023-08-17T07:58:44.547Z,18.23
2023-08-17T07:59:44.539Z,18.27
2023-08-17T08:00:44.507Z,18.18
2023-08-17T08:01:44.535Z,18.18
2023-08-17T08:02:44.563Z,18.25
2023-08-17T08:03:44.454Z,18.27
2023-08-17T08:04:44.434Z,18.17
2023-08-17T08:05:44.473Z,18.11
2023-08-17T08:06:44.379Z,18.15
2023-08-17T08:07:44.358Z,18.14
2023-08-17T08:08:44.346Z,18.26
2023-08-17T08:09:44.322Z,18.30
2023-08-17T08:10:44.316Z,18.21
2023-08-17T08:11:44.305Z,18.35
2023-08-17T08:12:44.260Z,18.44
2023-08-17T08:13:44.238Z,18.47
2023-08-17T08:14:44.210Z,18.50
2023-08-17T08:15:44.229Z,18.41
2023-08-17T08:16:44.193Z,18.42
2023-08-17T08:17:44.194Z,18.44
2023-08-17T08:18:44.136Z,18.37
2023-08-17T08:19:44.133Z,18.39
2023-08-17T08:20:44.095Z,18.41
2023-08-17T08:21:44.083Z,18.35
2023-08-17T08:22:44.051Z,18.41
2023-08-17T08:23:44.032Z,18.41
2023-08-17T08:24:44.950Z,18.44
2023-08-17T08:25:43.991Z,18.39
2023-08-17T08:26:43.974Z,18.44
2023-08-17T08:27:43.983Z,18.45
2023-08-17T08:28:43.937Z,18.47
2023-08-17T08:29:43.904Z,18.44
2023-08-17T08:30:43.889Z,18.47
2023-08-17T08:31:43.984Z,18.44
2023-08-17T08:32:43.875Z,18.45
2023-08-17T08:33:43.827Z,18.42
2023-08-17T08:34:43.807Z,18.44
2023-08-17T08:35:43.781Z,18.50
2023-08-17T08:36:43.790Z,18.51
2023-08-17T08:37:43.743Z,18.42
2023-08-17T08:38:43.727Z,18.50
2023-08-17T08:39:43.706Z,18.45
2023-08-17T08:40:43.685Z,18.47
2023-08-17T08:41:43.664Z,18.58
2023-08-17T08:42:43.660Z,18.65
2023-08-17T08:43:45.016Z,18.47
2023-08-17T08:44:43.609Z,18.47
2023-08-17T08:45:43.607Z,18.52
2023-08-17T08:46:43.562Z,18.44
2023-08-17T08:47:43.599Z,18.54
2023-08-17T08:48:43.519Z,18.57
2023-08-17T08:49:44.674Z,18.60
2023-08-17T08:50:43.481Z,18.58
2023-08-17T08:51:43.464Z,18.63
2023-08-17T08:52:43.431Z,18.70
2023-08-17T08:53:43.421Z,18.72
2023-08-17T08:54:43.393Z,18.58
2023-08-17T08:55:45.978Z,18.58
2023-08-17T08:56:47.836Z,18.60
2023-08-17T08:57:43.334Z,18.67
2023-08-17T08:58:43.306Z,18.65
2023-08-17T08:59:43.319Z,18.70
2023-08-17T09:00:43.280Z,18.60
2023-08-17T09:01:43.360Z,18.57
2023-08-17T09:02:43.241Z,18.70
2023-08-17T09:03:43.222Z,18.73
2023-08-17T09:04:43.205Z,18.81
2023-08-17T09:05:43.186Z,18.82
2023-08-17T09:06:43.157Z,18.78
2023-08-17T09:07:43.184Z,18.92
2023-08-17T09:08:43.106Z,18.91
2023-08-17T09:09:43.091Z,18.99
2023-08-17T09:10:43.068Z,18.90
2023-08-17T09:11:45.380Z,19.02
2023-08-17T09:13:43.011Z,19.11
2023-08-17T09:14:42.994Z,19.06
2023-08-17T09:15:43.083Z,19.10
2023-08-17T09:16:42.999Z,19.04
2023-08-17T09:17:42.959Z,19.16
2023-08-17T09:18:42.903Z,19.14
2023-08-17T09:19:42.890Z,19.14
2023-08-17T09:21:42.847Z,19.06
2023-08-17T09:22:42.846Z,19.07
2023-08-17T09:23:42.808Z,19.14
2023-08-17T09:24:42.783Z,19.13
2023-08-17T09:25:42.766Z,19.02
2023-08-17T09:26:42.765Z,19.08
2023-08-17T09:27:42.781Z,19.08
2023-08-17T09:28:42.719Z,19.13
2023-08-17T09:29:42.724Z,19.25
2023-08-17T09:30:42.691Z,19.22
2023-08-17T09:31:42.668Z,19.22
2023-08-17T09:32:42.656Z,19.19
2023-08-17T09:33:45.431Z,19.18
2023-08-17T09:34:42.580Z,19.16
2023-08-17T09:35:42.565Z,19.11
2023-08-17T09:36:42.548Z,19.14
2023-08-17T09:37:42.521Z,19.11
2023-08-17T09:38:42.504Z,19.11
2023-08-17T09:39:42.485Z,19.07
2023-08-17T09:40:42.456Z,19.06
2023-08-17T09:41:43.737Z,19.07
2023-08-17T09:42:42.419Z,19.21
2023-08-17T09:43:42.462Z,19.18
2023-08-17T09:44:42.373Z,19.08
2023-08-17T09:45:42.389Z,19.10
2023-08-17T09:46:42.382Z,19.06
2023-08-17T09:47:42.379Z,19.11
2023-08-17T09:48:42.296Z,19.23
2023-08-17T09:49:42.275Z,19.18
2023-08-17T09:50:42.256Z,19.18
2023-08-17T09:51:43.459Z,19.28
2023-08-17T09:52:42.220Z,19.21
2023-08-17T09:53:42.196Z,19.19
2023-08-17T09:54:42.172Z,19.33
2023-08-17T09:55:42.153Z,19.23
2023-08-17T09:56:42.134Z,19.26
2023-08-17T09:57:42.147Z,19.32
2023-08-17T09:58:42.089Z,19.25
2023-08-17T09:59:42.081Z,19.23
2023-08-17T10:00:42.103Z,19.28
2023-08-17T10:01:42.032Z,19.29
2023-08-17T10:02:42.043Z,19.26
2023-08-17T10:03:42.009Z,19.37
2023-08-17T10:04:41.986Z,19.39
2023-08-17T10:05:41.953Z,19.32
2023-08-17T10:06:41.930Z,19.33
2023-08-17T10:07:41.908Z,19.37
2023-08-17T10:08:41.893Z,19.39
2023-08-17T10:09:41.873Z,19.47
2023-08-17T10:10:41.849Z,19.37
2023-08-17T10:11:41.862Z,19.37
2023-08-17T10:12:41.859Z,19.32
2023-08-17T10:13:41.788Z,19.40
2023-08-17T10:14:41.768Z,19.39
2023-08-17T10:15:41.754Z,19.41
2023-08-17T10:16:41.755Z,19.43
2023-08-17T10:17:41.749Z,19.44
2023-08-17T10:18:41.678Z,19.47
2023-08-17T10:19:41.697Z,19.41
2023-08-17T10:20:41.643Z,19.41
2023-08-17T10:21:41.626Z,19.26
2023-08-17T10:22:41.603Z,19.29
2023-08-17T10:23:43.102Z,19.22
2023-08-17T10:24:46.714Z,19.22
2023-08-17T10:25:41.546Z,19.26
2023-08-17T10:26:41.559Z,19.29
2023-08-17T10:27:41.505Z,19.26
2023-08-17T10:28:41.483Z,19.26
2023-08-17T10:29:41.474Z,19.28
2023-08-17T10:30:41.459Z,19.36
2023-08-17T10:31:41.449Z,19.39
2023-08-17T10:32:41.455Z,19.46
2023-08-17T10:33:41.391Z,19.43
2023-08-17T10:34:41.363Z,19.46
2023-08-17T10:35:41.370Z,19.47
2023-08-17T10:36:41.326Z,19.54
2023-08-17T10:37:41.325Z,19.56
2023-08-17T10:38:41.279Z,19.58
2023-08-17T10:39:41.266Z,19.55
2023-08-17T10:40:41.260Z,19.62
2023-08-17T10:41:41.215Z,19.68
2023-08-17T10:42:41.202Z,19.61
2023-08-17T10:43:41.187Z,19.62
2023-08-17T10:44:41.176Z,19.55
2023-08-17T10:45:41.264Z,19.59
2023-08-17T10:46:41.177Z,19.44
2023-08-17T10:47:41.136Z,19.44
2023-08-17T10:48:41.081Z,19.56
2023-08-17T10:49:41.066Z,19.48
2023-08-17T10:50:43.979Z,19.50
2023-08-17T10:51:45.524Z,19.43
2023-08-17T10:52:40.996Z,19.48
2023-08-17T10:53:40.987Z,19.54
2023-08-17T10:54:40.974Z,19.51
2023-08-17T10:55:40.949Z,19.54
2023-08-17T10:56:40.921Z,19.46
2023-08-17T10:57:40.904Z,19.47
2023-08-17T10:58:40.881Z,19.56
2023-08-17T10:59:40.863Z,19.58
2023-08-17T11:00:40.839Z,19.55
2023-08-17T11:01:40.892Z,19.63
2023-08-17T11:02:41.270Z,19.62
2023-08-17T11:03:40.785Z,19.59
2023-08-17T11:04:40.816Z,19.59
2023-08-17T11:05:40.743Z,19.66
2023-08-17T11:06:40.730Z,19.63
2023-08-17T11:07:40.807Z,19.65
2023-08-17T11:08:43.602Z,19.80
2023-08-17T11:09:45.117Z,19.74
2023-08-17T11:10:40.658Z,19.83
2023-08-17T11:11:40.620Z,19.84
2023-08-17T11:12:40.599Z,19.92
2023-08-17T11:13:40.586Z,19.95
2023-08-17T11:14:40.560Z,19.94
2023-08-17T11:15:40.640Z,19.96
2023-08-17T11:16:40.557Z,19.92
2023-08-17T11:17:40.629Z,19.88
2023-08-17T11:18:40.479Z,19.86
2023-08-17T11:19:40.470Z,19.84
2023-08-17T11:20:40.438Z,19.92
2023-08-17T11:21:40.426Z,19.86
2023-08-17T11:22:40.399Z,19.83
2023-08-17T11:23:40.400Z,19.80
2023-08-17T11:24:40.385Z,19.78
2023-08-17T11:25:40.345Z,19.84
2023-08-17T11:26:40.332Z,19.83
2023-08-17T11:27:40.302Z,19.81
2023-08-17T11:29:44.627Z,19.86
2023-08-17T11:30:40.572Z,19.84
2023-08-17T11:31:40.240Z,19.73
2023-08-17T11:32:40.209Z,19.69
2023-08-17T11:33:40.185Z,19.68
2023-08-17T11:34:40.160Z,19.58
2023-08-17T11:35:40.132Z,19.65
2023-08-17T11:36:40.120Z,19.66
2023-08-17T11:37:40.130Z,19.61
2023-08-17T11:38:40.107Z,19.59
2023-08-17T11:39:40.079Z,19.66
2023-08-17T11:40:40.038Z,19.62
2023-08-17T11:41:40.027Z,19.73
2023-08-17T11:42:39.996Z,19.63
2023-08-17T11:43:39.977Z,19.71
2023-08-17T11:44:39.952Z,19.74
2023-08-17T11:45:40.020Z,19.63
2023-08-17T11:46:39.926Z,19.54
2023-08-17T11:47:39.904Z,19.54
2023-08-17T11:48:39.874Z,19.65
2023-08-17T11:49:40.312Z,19.65
2023-08-17T11:50:40.317Z,19.66
2023-08-17T11:51:43.149Z,19.66
2023-08-17T11:52:39.803Z,19.66
2023-08-17T11:53:39.785Z,19.65
2023-08-17T11:54:39.755Z,19.68
2023-08-17T11:55:39.759Z,19.56
2023-08-17T11:56:39.713Z,19.63
2023-08-17T11:57:39.700Z,19.68
2023-08-17T11:58:39.672Z,19.55
2023-08-17T11:59:39.658Z,19.54
2023-08-17T12:00:39.636Z,19.58
2023-08-17T12:01:39.672Z,19.61
2023-08-17T12:02:39.621Z,19.62
2023-08-17T12:03:39.704Z,19.63
2023-08-17T12:04:39.558Z,19.62
2023-08-17T12:05:39.535Z,19.63
2023-08-17T12:06:39.513Z,19.63
2023-08-17T12:07:39.544Z,19.74
2023-08-17T12:08:39.464Z,19.68
2023-08-17T12:09:39.451Z,19.68
2023-08-17T12:10:39.429Z,19.81
2023-08-17T12:11:39.456Z,19.83
2023-08-17T12:12:39.392Z,19.80
2023-08-17T12:13:39.369Z,19.88
2023-08-17T12:14:39.354Z,19.83
2023-08-17T12:15:39.384Z,19.92
2023-08-17T12:16:39.319Z,19.92
2023-08-17T12:17:39.310Z,19.84
2023-08-17T12:18:39.273Z,19.84
2023-08-17T12:19:39.260Z,19.87
2023-08-17T12:20:39.235Z,19.81
2023-08-17T12:21:39.227Z,19.87
2023-08-17T12:22:39.191Z,19.86
2023-08-17T12:23:39.178Z,19.81
2023-08-17T12:24:39.161Z,19.91
2023-08-17T12:25:39.143Z,19.91
2023-08-17T12:26:39.117Z,19.91
2023-08-17T12:27:39.113Z,19.81
2023-08-17T12:28:39.072Z,19.86
2023-08-17T12:29:39.057Z,19.83
2023-08-17T12:30:39.034Z,19.81
2023-08-17T12:31:39.028Z,19.80
2023-08-17T12:32:39.056Z,19.78
2023-08-17T12:33:39.001Z,19.73
2023-08-17T12:34:38.953Z,19.81
2023-08-17T12:35:38.970Z,19.77
2023-08-17T12:36:38.936Z,19.83
2023-08-17T12:37:38.896Z,19.84
2023-08-17T12:38:38.878Z,19.80
2023-08-17T12:39:38.853Z,19.81
2023-08-17T12:40:38.831Z,19.81
2023-08-17T12:41:38.833Z,19.84
2023-08-17T12:42:38.798Z,19.84
2023-08-17T12:43:38.813Z,19.81
2023-08-17T12:44:38.753Z,19.84
2023-08-17T12:45:38.741Z,19.87
2023-08-17T12:46:38.753Z,19.94
2023-08-17T12:47:38.737Z,19.95
2023-08-17T12:48:38.667Z,19.87
2023-08-17T12:49:39.540Z,19.92
2023-08-17T12:50:43.372Z,19.84
2023-08-17T12:51:38.615Z,19.81
2023-08-17T12:52:38.600Z,19.87
2023-08-17T12:53:38.607Z,19.92
2023-08-17T12:54:38.549Z,19.91
2023-08-17T12:55:38.537Z,20.01